createdAt,value
2023-09-02T00:00:54.905Z,3.58
2023-09-02T00:03:21.898Z,3.33
2023-09-02T00:05:48.713Z,3.65
2023-09-02T00:08:15.413Z,4.28
2023-09-02T00:10:42.136Z,3.88
2023-09-02T00:13:08.926Z,3.97
2023-09-02T00:15:35.599Z,3.58
2023-09-02T00:18:02.337Z,3.38
2023-09-02T00:20:29.079Z,3.38
2023-09-02T00:22:55.846Z,3.13
2023-09-02T00:25:23.925Z,3.00
2023-09-02T00:27:50.706Z,3.10
2023-09-02T00:30:17.471Z,3.25
2023-09-02T00:32:44.281Z,2.80
2023-09-02T00:35:11.462Z,3.17
2023-09-02T00:37:38.244Z,2.83
2023-09-02T00:40:06.987Z,3.30
2023-09-02T00:42:35.004Z,3.10
2023-09-02T00:45:01.914Z,3.60
2023-09-02T00:47:29.050Z,3.38
2023-09-02T00:49:56.134Z,3.40
2023-09-02T00:52:22.879Z,4.20
2023-09-02T00:54:49.574Z,3.67
2023-09-02T00:57:16.443Z,3.72
2023-09-02T00:59:43.318Z,3.35
2023-09-02T01:02:10.580Z,2.88
2023-09-02T01:04:37.710Z,2.80
2023-09-02T01:07:04.669Z,4.53
2023-09-02T01:09:32.015Z,3.25
2023-09-02T01:11:58.870Z,3.92
2023-09-02T01:14:25.659Z,3.90
2023-09-02T01:16:52.553Z,3.88
2023-09-02T01:19:21.334Z,3.35
2023-09-02T01:21:59.469Z,3.28
2023-09-02T01:24:55.376Z,3.15
2023-09-02T01:27:53.338Z,3.70
2023-09-02T01:30:24.946Z,3.38
2023-09-02T01:32:54.570Z,3.83
2023-09-02T01:35:25.597Z,3.30
2023-09-02T01:37:56.390Z,3.58
2023-09-02T01:40:27.968Z,3.15
2023-09-02T01:42:58.023Z,3.58
2023-09-02T01:45:32.144Z,3.58
2023-09-02T01:47:59.562Z,2.83
2023-09-02T01:50:29.753Z,3.22
2023-09-02T01:53:00.112Z,3.50
2023-09-02T01:55:27.646Z,3.22
2023-09-02T01:57:56.550Z,3.03
2023-09-02T02:00:23.420Z,3.03
2023-09-02T02:02:56.166Z,2.83
2023-09-02T02:05:46.095Z,3.47
2023-09-02T02:08:17.134Z,3.67
2023-09-02T02:10:46.736Z,3.63
2023-09-02T02:13:14.172Z,3.08
2023-09-02T02:15:40.867Z,3.00
2023-09-02T02:18:10.345Z,3.30
2023-09-02T02:20:58.364Z,3.40
2023-09-02T02:23:25.090Z,3.28
2023-09-02T02:25:51.918Z,3.13
2023-09-02T02:28:19.587Z,3.78
2023-09-02T02:30:48.783Z,3.55
2023-09-02T02:33:15.670Z,3.90
2023-09-02T02:35:42.582Z,3.20
2023-09-02T02:38:09.336Z,4.10
2023-09-02T02:40:37.173Z,3.30
2023-09-02T02:43:04.100Z,3.72
2023-09-02T02:45:30.894Z,3.50
2023-09-02T02:48:01.221Z,3.78
2023-09-02T02:50:28.015Z,3.40
2023-09-02T02:52:54.773Z,3.60
2023-09-02T02:55:24.131Z,4.13
2023-09-02T02:57:50.926Z,4.25
2023-09-02T03:00:17.685Z,3.78
2023-09-02T03:02:44.533Z,4.28
2023-09-02T03:05:11.336Z,3.95
2023-09-02T03:07:40.551Z,3.95
2023-09-02T03:10:07.793Z,4.07
2023-09-02T03:12:34.471Z,5.15
2023-09-02T03:15:01.181Z,4.28
2023-09-02T03:17:27.948Z,3.63
2023-09-02T03:19:54.700Z,4.25
2023-09-02T03:22:21.515Z,4.70
2023-09-02T03:24:54.594Z,4.15
2023-09-02T03:27:21.964Z,3.45
2023-09-02T03:29:50.548Z,4.25
2023-09-02T03:32:17.737Z,4.07
2023-09-02T03:34:44.578Z,3.88
2023-09-02T03:37:11.361Z,4.10
2023-09-02T03:39:38.159Z,3.63
2023-09-02T03:42:05.333Z,4.18
2023-09-02T03:44:32.795Z,3.80
2023-09-02T03:46:59.636Z,3.70
2023-09-02T03:49:28.486Z,4.22
2023-09-02T03:51:55.426Z,4.20
2023-09-02T03:54:22.270Z,4.15
2023-09-02T03:56:48.998Z,4.15
2023-09-02T03:59:15.664Z,4.72
2023-09-02T04:01:42.407Z,4.32
2023-09-02T04:04:09.183Z,4.30
2023-09-02T04:06:35.931Z,4.93
2023-09-02T04:09:02.674Z,4.07
2023-09-02T04:11:29.380Z,4.43
2023-09-02T04:13:56.227Z,4.32
2023-09-02T04:16:23.036Z,4.50
2023-09-02T04:18:49.857Z,5.28
2023-09-02T04:21:16.602Z,3.97
2023-09-02T04:23:43.464Z,3.40
2023-09-02T04:26:10.152Z,4.07
2023-09-02T04:28:42.073Z,4.40
2023-09-02T04:31:08.756Z,3.78
2023-09-02T04:33:35.597Z,4.30
2023-09-02T04:36:03.970Z,4.00
2023-09-02T04:38:30.825Z,3.70
2023-09-02T04:40:57.787Z,3.58
2023-09-02T04:43:24.455Z,3.25
2023-09-02T04:45:51.341Z,3.88
2023-09-02T04:48:18.184Z,3.80
2023-09-02T04:50:45.095Z,3.40
2023-09-02T04:53:11.926Z,3.15
2023-09-02T04:55:49.424Z,3.38
2023-09-02T04:58:16.334Z,3.03
2023-09-02T05:00:43.031Z,3.60
2023-09-02T05:03:10.219Z,3.45
2023-09-02T05:05:37.492Z,3.78
2023-09-02T05:08:04.568Z,3.63
2023-09-02T05:10:31.452Z,3.78
2023-09-02T05:12:58.173Z,3.70
2023-09-02T05:15:25.051Z,3.30
2023-09-02T05:17:52.329Z,3.65
2023-09-02T05:20:19.163Z,3.15
2023-09-02T05:22:46.062Z,4.13
2023-09-02T05:25:12.873Z,3.00
2023-09-02T05:27:40.267Z,4.07
2023-09-02T05:30:07.677Z,3.22
2023-09-02T05:32:34.732Z,3.92
2023-09-02T05:35:01.558Z,3.88
2023-09-02T05:37:28.231Z,3.78
2023-09-02T05:39:54.958Z,4.95
2023-09-02T05:42:21.694Z,4.57
2023-09-02T05:44:48.501Z,3.65
2023-09-02T05:47:15.243Z,3.15
2023-09-02T05:49:42.009Z,3.15
2023-09-02T05:52:08.773Z,3.75
2023-09-02T05:54:35.511Z,3.28
2023-09-02T05:57:02.367Z,3.08
2023-09-02T05:59:30.540Z,2.83
2023-09-02T06:01:58.060Z,3.35
2023-09-02T06:06:51.692Z,3.70
2023-09-02T06:09:18.420Z,3.00
2023-09-02T06:11:45.157Z,2.70
2023-09-02T06:14:11.889Z,2.70
2023-09-02T06:16:38.820Z,2.20
2023-09-02T06:19:05.603Z,2.90
2023-09-02T06:21:32.478Z,2.65
2023-09-02T06:23:59.230Z,2.88
2023-09-02T06:26:26.977Z,3.30
2023-09-02T06:28:53.812Z,2.92
2023-09-02T06:31:20.608Z,3.42
2023-09-02T06:33:47.409Z,3.13
2023-09-02T06:36:17.618Z,3.08
2023-09-02T06:38:45.081Z,2.47
2023-09-02T06:41:16.731Z,3.17
2023-09-02T06:43:44.248Z,3.13
2023-09-02T06:46:12.793Z,2.97
2023-09-02T06:48:39.775Z,2.67
2023-09-02T06:51:06.563Z,3.35
2023-09-02T06:53:33.412Z,3.30
2023-09-02T06:56:00.212Z,2.90
2023-09-02T06:58:26.998Z,2.92
2023-09-02T07:00:53.899Z,3.60
2023-09-02T07:03:21.178Z,3.30
2023-09-02T07:05:48.143Z,2.70
2023-09-02T07:08:14.946Z,2.38
2023-09-02T07:10:42.095Z,2.92
2023-09-02T07:13:08.881Z,2.60
2023-09-02T07:15:38.735Z,2.90
2023-09-02T07:18:06.173Z,2.72
2023-09-02T07:20:37.948Z,2.80
2023-09-02T07:23:04.983Z,3.00
2023-09-02T07:25:31.797Z,2.85
2023-09-02T07:27:58.585Z,3.13
2023-09-02T07:30:25.448Z,2.70
2023-09-02T07:32:52.335Z,2.53
2023-09-02T07:35:19.158Z,2.42
2023-09-02T07:37:45.912Z,2.65
2023-09-02T07:40:12.638Z,2.50
2023-09-02T07:42:39.412Z,2.30
2023-09-02T07:45:06.736Z,2.03
2023-09-02T07:47:33.534Z,2.70
2023-09-02T07:50:00.405Z,2.80
2023-09-02T07:52:27.280Z,2.15
2023-09-02T07:54:53.982Z,2.40
2023-09-02T07:57:20.768Z,8.40
2023-09-02T07:59:47.585Z,3.88
2023-09-02T08:02:14.362Z,4.32
2023-09-02T08:04:41.110Z,6.53
2023-09-02T08:07:07.813Z,2.58
2023-09-02T08:09:34.753Z,5.75
2023-09-02T08:12:10.054Z,2.85
2023-09-02T08:14:36.921Z,2.63
2023-09-02T08:17:03.819Z,2.67
2023-09-02T08:19:34.019Z,4.28
2023-09-02T08:22:00.928Z,2.60
2023-09-02T08:24:27.811Z,2.45
2023-09-02T08:27:04.593Z,3.42
2023-09-02T08:29:33.778Z,2.08
2023-09-02T08:32:01.911Z,2.05
2023-09-02T08:34:28.838Z,2.17
2023-09-02T08:36:55.673Z,3.38
2023-09-02T08:39:22.562Z,2.40
2023-09-02T08:41:52.527Z,2.45
2023-09-02T08:44:21.633Z,5.25
2023-09-02T08:46:57.209Z,2.20
2023-09-02T08:49:24.988Z,2.40
2023-09-02T08:51:53.851Z,2.40
2023-09-02T08:54:22.977Z,2.22
2023-09-02T08:56:50.406Z,2.17
2023-09-02T08:59:17.436Z,3.25
2023-09-02T09:01:50.271Z,4.50
2023-09-02T09:04:18.956Z,3.75
2023-09-02T09:06:46.020Z,8.88
2023-09-02T09:09:12.935Z,3.00
2023-09-02T09:11:44.537Z,2.55
2023-09-02T09:14:18.288Z,2.60
2023-09-02T09:16:46.874Z,2.40
2023-09-02T09:19:13.648Z,2.35
2023-09-02T09:21:40.600Z,2.38
2023-09-02T09:24:12.561Z,2.10
2023-09-02T09:26:39.827Z,3.03
2023-09-02T09:31:38.074Z,2.50
2023-09-02T09:34:05.867Z,2.60
2023-09-02T09:36:32.963Z,3.10
2023-09-02T09:39:03.691Z,2.13
2023-09-02T09:41:31.183Z,2.17
2023-09-02T09:44:17.292Z,2.72
2023-09-02T09:46:44.054Z,2.60
2023-09-02T09:49:23.699Z,3.22
2023-09-02T09:52:02.916Z,2.40
2023-09-02T09:54:37.904Z,2.58
2023-09-02T09:57:15.318Z,2.90
2023-09-02T09:59:54.877Z,2.70
2023-09-02T10:02:22.840Z,3.58
2023-09-02T10:04:54.421Z,2.83
2023-09-02T10:07:26.400Z,3.25
2023-09-02T10:09:57.670Z,3.00
2023-09-02T10:12:24.638Z,3.58
2023-09-02T10:14:52.111Z,3.63
2023-09-02T10:17:19.647Z,3.28
2023-09-02T10:19:47.664Z,3.72
2023-09-02T10:22:20.514Z,3.53
2023-09-02T10:25:11.495Z,3.40
2023-09-02T10:27:42.053Z,3.83
2023-09-02T10:30:16.885Z,3.92
2023-09-02T10:32:52.499Z,3.80
2023-09-02T10:35:23.703Z,3.15
2023-09-02T10:37:59.899Z,4.40
2023-09-02T10:40:31.422Z,4.05
2023-09-02T10:42:59.460Z,5.43
2023-09-02T10:45:28.584Z,4.53
2023-09-02T10:47:55.457Z,4.38
2023-09-02T10:50:24.534Z,4.55
2023-09-02T10:53:04.113Z,4.20
2023-09-02T10:56:01.872Z,4.95
2023-09-02T10:58:37.550Z,4.32
2023-09-02T11:01:04.453Z,4.32
2023-09-02T11:03:51.407Z,3.83
2023-09-02T11:06:18.893Z,3.97
2023-09-02T11:08:51.013Z,4.13
2023-09-02T11:11:21.758Z,4.25
2023-09-02T11:14:07.659Z,3.97
2023-09-02T11:16:41.918Z,4.15
2023-09-02T11:19:13.204Z,4.13
2023-09-02T11:21:44.997Z,3.75
2023-09-02T11:24:21.817Z,4.22
2023-09-02T11:26:51.271Z,3.72
2023-09-02T11:29:27.794Z,3.65
2023-09-02T11:32:02.400Z,3.75
2023-09-02T11:34:31.000Z,4.00
2023-09-02T11:37:02.330Z,4.38
2023-09-02T11:39:30.681Z,3.95
2023-09-02T11:42:13.739Z,3.78
2023-09-02T11:44:51.815Z,3.83
2023-09-02T11:47:19.025Z,4.20
2023-09-02T11:52:12.499Z,4.00
2023-09-02T11:54:40.456Z,5.68
2023-09-02T11:57:07.125Z,4.60
2023-09-02T11:59:33.929Z,4.85
2023-09-02T12:02:08.901Z,4.72
2023-09-02T12:04:39.704Z,4.60
2023-09-02T12:07:10.926Z,4.85
2023-09-02T12:09:38.933Z,4.57
2023-09-02T12:12:07.893Z,4.65
2023-09-02T12:14:37.264Z,5.38
2023-09-02T12:17:16.837Z,4.55
2023-09-02T12:19:43.791Z,4.13
2023-09-02T12:22:21.778Z,5.05
2023-09-02T12:24:48.660Z,5.22
2023-09-02T12:27:18.552Z,4.40
2023-09-02T12:29:56.540Z,4.78
2023-09-02T12:32:23.914Z,6.57
2023-09-02T12:34:50.970Z,7.25
2023-09-02T12:37:19.438Z,6.95
2023-09-02T12:39:46.284Z,7.05
2023-09-02T12:42:16.492Z,7.25
2023-09-02T12:45:03.808Z,8.18
2023-09-02T12:47:31.172Z,7.05
2023-09-02T12:50:02.796Z,7.25
2023-09-02T12:52:31.104Z,7.70
2023-09-02T12:55:00.214Z,7.78
2023-09-02T12:57:29.731Z,6.15
2023-09-02T12:59:56.800Z,7.00
2023-09-02T13:02:25.615Z,7.53
2023-09-02T13:04:53.636Z,7.13
2023-09-02T13:07:21.257Z,7.10
2023-09-02T13:09:49.310Z,7.60
2023-09-02T13:12:16.587Z,8.38
2023-09-02T13:14:44.075Z,4.70
2023-09-02T13:17:14.531Z,4.60
2023-09-02T13:19:41.352Z,5.25
2023-09-02T13:22:10.339Z,5.47
2023-09-02T13:24:38.836Z,7.35
2023-09-02T13:27:05.953Z,7.55
2023-09-02T13:29:34.179Z,5.20
2023-09-02T13:34:37.713Z,5.00
2023-09-02T13:37:19.770Z,5.63
2023-09-02T13:40:00.228Z,5.78
2023-09-02T13:42:28.065Z,4.60
2023-09-02T13:45:10.457Z,5.35
2023-09-02T13:47:37.484Z,4.82
2023-09-02T13:50:04.765Z,4.78
2023-09-02T13:52:31.706Z,5.53
2023-09-02T13:54:59.815Z,5.68
2023-09-02T13:57:26.792Z,5.13
2023-09-02T13:59:58.273Z,8.73
2023-09-02T14:02:26.644Z,5.32
2023-09-02T14:04:54.001Z,4.10
2023-09-02T14:09:48.343Z,6.43
2023-09-02T14:12:20.037Z,4.60
2023-09-02T14:14:47.631Z,4.72
2023-09-02T14:17:15.193Z,4.35
2023-09-02T14:19:42.061Z,4.88
2023-09-02T14:22:09.010Z,4.35
2023-09-02T14:24:35.910Z,4.80
2023-09-02T14:27:10.473Z,3.88
2023-09-02T14:29:38.270Z,4.60
2023-09-02T14:32:05.998Z,4.40
2023-09-02T14:34:33.928Z,4.03
2023-09-02T14:37:02.866Z,4.22
2023-09-02T14:39:31.345Z,4.10
2023-09-02T14:41:58.152Z,4.40
2023-09-02T14:44:25.094Z,4.20
2023-09-02T14:46:52.134Z,4.03
2023-09-02T14:49:19.648Z,4.53
2023-09-02T14:51:48.104Z,4.80
2023-09-02T14:54:17.001Z,4.88
2023-09-02T14:56:46.063Z,4.35
2023-09-02T14:59:31.082Z,4.03
2023-09-02T15:01:57.906Z,4.35
2023-09-02T15:04:25.180Z,4.45
2023-09-02T15:09:38.975Z,3.72
2023-09-02T15:12:06.995Z,3.80
2023-09-02T15:14:36.154Z,3.85
2023-09-02T15:17:09.312Z,4.47
2023-09-02T15:19:36.105Z,3.92
2023-09-02T15:22:03.311Z,3.80
2023-09-02T15:24:33.599Z,3.70
2023-09-02T15:27:04.130Z,3.90
2023-09-02T15:29:30.876Z,3.95
2023-09-02T15:31:57.995Z,3.47
2023-09-02T15:34:25.612Z,3.75
2023-09-02T15:37:00.158Z,4.10
2023-09-02T15:39:28.781Z,3.78
2023-09-02T15:41:56.676Z,3.55
2023-09-02T15:44:23.534Z,4.30
2023-09-02T15:46:50.280Z,3.95
2023-09-02T15:49:17.072Z,4.53
2023-09-02T15:51:43.902Z,4.00
2023-09-02T15:54:13.462Z,3.92
2023-09-02T15:56:40.265Z,4.50
2023-09-02T15:59:07.100Z,4.40
2023-09-02T16:01:33.992Z,4.07
2023-09-02T16:04:00.826Z,3.90
2023-09-02T16:06:27.649Z,3.75
2023-09-02T16:08:54.881Z,3.53
2023-09-02T16:11:21.809Z,3.33
2023-09-02T16:13:48.535Z,3.75
2023-09-02T16:16:15.392Z,3.05
2023-09-02T16:18:42.154Z,3.35
2023-09-02T16:21:09.094Z,2.80
2023-09-02T16:23:35.800Z,2.97
2023-09-02T16:26:02.640Z,2.92
2023-09-02T16:28:29.383Z,2.97
2023-09-02T16:30:56.129Z,3.28
2023-09-02T16:33:23.012Z,3.10
2023-09-02T16:35:50.561Z,3.45
2023-09-02T16:38:18.488Z,3.70
2023-09-02T16:40:45.873Z,3.33
2023-09-02T16:43:17.386Z,3.08
2023-09-02T16:45:48.522Z,3.40
2023-09-02T16:48:16.452Z,3.72
2023-09-02T16:50:46.881Z,3.70
2023-09-02T16:53:18.027Z,3.80
2023-09-02T16:55:53.861Z,3.90
2023-09-02T16:58:20.593Z,3.75
2023-09-02T17:00:48.048Z,3.28
2023-09-02T17:03:18.323Z,3.55
2023-09-02T17:05:46.332Z,3.45
2023-09-02T17:08:22.034Z,3.35
2023-09-02T17:10:52.650Z,3.50
2023-09-02T17:13:19.590Z,3.42
2023-09-02T17:15:48.644Z,3.80
2023-09-02T17:18:17.220Z,3.20
2023-09-02T17:20:44.975Z,3.75
2023-09-02T17:23:19.173Z,3.30
2023-09-02T17:25:48.108Z,3.60
2023-09-02T17:28:21.276Z,2.88
2023-09-02T17:30:55.265Z,2.95
2023-09-02T17:35:48.591Z,3.22
2023-09-02T17:38:15.386Z,3.05
2023-09-02T17:40:42.103Z,2.90
2023-09-02T17:43:09.305Z,2.78
2023-09-02T17:45:36.021Z,2.60
2023-09-02T17:48:02.794Z,2.97
2023-09-02T17:50:29.711Z,3.22
2023-09-02T17:52:56.508Z,2.67
2023-09-02T17:55:23.219Z,2.70
2023-09-02T17:57:50.044Z,2.92
2023-09-02T18:00:17.042Z,3.03
2023-09-02T18:02:44.632Z,2.53
2023-09-02T18:05:12.627Z,2.75
2023-09-02T18:07:39.772Z,2.50
2023-09-02T18:10:09.045Z,2.80
2023-09-02T18:12:36.345Z,2.47
2023-09-02T18:15:03.190Z,2.97
2023-09-02T18:17:29.969Z,3.10
2023-09-02T18:19:56.666Z,3.38
2023-09-02T18:22:23.506Z,3.15
2023-09-02T18:24:50.361Z,2.90
2023-09-02T18:27:17.788Z,2.80
2023-09-02T18:29:44.527Z,2.75
2023-09-02T18:32:11.234Z,32.05
2023-09-02T18:34:37.990Z,33.92
2023-09-02T18:37:04.988Z,62.63
2023-09-02T18:39:31.982Z,16.85
2023-09-02T18:41:59.013Z,9.13
2023-09-02T18:44:25.807Z,4.80
2023-09-02T18:46:52.600Z,4.18
2023-09-02T18:49:19.436Z,3.50
2023-09-02T18:51:46.300Z,3.92
2023-09-02T18:54:13.249Z,15.85
2023-09-02T18:56:40.015Z,12.43
2023-09-02T18:59:08.711Z,12.43
2023-09-02T19:01:35.950Z,10.07
2023-09-02T19:04:03.650Z,8.57
2023-09-02T19:06:34.960Z,6.82
2023-09-02T19:09:02.572Z,5.35
2023-09-02T19:11:30.245Z,4.93
2023-09-02T19:13:57.756Z,3.08
2023-09-02T19:16:25.842Z,2.88
2023-09-02T19:19:10.044Z,7.68
2023-09-02T19:21:36.869Z,3.58
2023-09-02T19:24:04.107Z,2.80
2023-09-02T19:26:30.945Z,4.20
2023-09-02T19:28:57.717Z,4.60
2023-09-02T19:31:24.424Z,4.35
2023-09-02T19:33:51.216Z,3.22
2023-09-02T19:36:17.973Z,3.72
2023-09-02T19:38:44.732Z,3.33
2023-09-02T19:41:11.561Z,3.35
2023-09-02T19:43:39.610Z,3.22
2023-09-02T19:46:07.335Z,4.07
2023-09-02T19:48:34.295Z,3.35
2023-09-02T19:51:01.107Z,3.13
2023-09-02T19:53:28.054Z,2.85
2023-09-02T19:55:56.418Z,3.50
2023-09-02T19:58:23.310Z,4.47
2023-09-02T20:00:50.032Z,7.28
2023-09-02T20:03:18.342Z,4.35
2023-09-02T20:05:46.261Z,3.70
2023-09-02T20:08:15.770Z,4.57
2023-09-02T20:10:42.662Z,6.55
2023-09-02T20:13:09.444Z,3.47
2023-09-02T20:15:36.741Z,4.43
2023-09-02T20:18:04.317Z,3.83
2023-09-02T20:23:00.058Z,5.60
2023-09-02T20:25:31.354Z,3.20
2023-09-02T20:27:58.133Z,3.40
2023-09-02T20:30:24.908Z,3.05
2023-09-02T20:32:53.010Z,2.92
2023-09-02T20:35:19.821Z,3.50
2023-09-02T20:37:46.829Z,2.97
2023-09-02T20:40:13.757Z,2.92
2023-09-02T20:42:40.522Z,3.80
2023-09-02T20:45:07.487Z,4.40
2023-09-02T20:47:34.258Z,3.00
2023-09-02T20:50:01.890Z,2.83
2023-09-02T20:54:58.160Z,2.50
2023-09-02T20:57:24.976Z,3.20
2023-09-02T20:59:53.119Z,2.75
2023-09-02T21:02:20.413Z,4.85
2023-09-02T21:04:49.008Z,3.30
2023-09-02T21:07:15.949Z,2.85
2023-09-02T21:09:42.856Z,2.92
2023-09-02T21:12:11.747Z,3.00
2023-09-02T21:14:38.555Z,3.33
2023-09-02T21:17:05.533Z,3.22
2023-09-02T21:19:36.904Z,3.03
2023-09-02T21:22:03.818Z,3.53
2023-09-02T21:24:30.588Z,3.08
2023-09-02T21:26:58.526Z,3.38
2023-09-02T21:29:25.553Z,3.15
2023-09-02T21:31:52.284Z,3.20
2023-09-02T21:34:19.033Z,3.90
2023-09-02T21:36:46.243Z,3.05
2023-09-02T21:39:12.963Z,3.55
2023-09-02T21:41:39.733Z,3.25
2023-09-02T21:44:06.597Z,3.40
2023-09-02T21:46:34.241Z,3.45
2023-09-02T21:49:01.246Z,3.30
2023-09-02T21:51:28.014Z,2.80
2023-09-02T21:53:57.932Z,3.67
2023-09-02T21:56:24.804Z,4.38
2023-09-02T21:58:51.525Z,4.20
2023-09-02T22:01:19.628Z,3.45
2023-09-02T22:03:46.806Z,3.47
2023-09-02T22:06:15.541Z,4.65
2023-09-02T22:08:46.912Z,3.13
2023-09-02T22:11:14.629Z,3.28
2023-09-02T22:13:44.648Z,3.45
2023-09-02T22:16:11.917Z,3.58
2023-09-02T22:18:38.686Z,3.60
2023-09-02T22:21:08.103Z,3.92
2023-09-02T22:23:35.504Z,3.78
2023-09-02T22:26:05.558Z,3.00
2023-09-02T22:28:35.741Z,3.67
2023-09-02T22:31:03.916Z,3.90
2023-09-02T22:33:32.516Z,3.10
2023-09-02T22:35:59.826Z,3.65
2023-09-02T22:38:41.281Z,3.10
2023-09-02T22:41:14.406Z,3.55
2023-09-02T22:43:41.196Z,3.60
2023-09-02T22:46:09.771Z,3.70
2023-09-02T22:48:36.655Z,3.50
2023-09-02T22:51:04.725Z,3.38
2023-09-02T22:53:31.632Z,3.13
2023-09-02T22:56:01.424Z,3.40
2023-09-02T22:58:28.160Z,3.50
2023-09-02T23:00:54.928Z,3.42
2023-09-02T23:03:22.009Z,3.42
2023-09-02T23:05:48.969Z,3.53
2023-09-02T23:08:15.845Z,3.90
2023-09-02T23:10:43.950Z,3.22
2023-09-02T23:13:10.729Z,4.20
2023-09-02T23:15:37.576Z,3.33
2023-09-02T23:18:05.028Z,3.05
2023-09-02T23:22:59.019Z,2.65
2023-09-02T23:25:25.998Z,3.17
2023-09-02T23:27:53.366Z,2.97
2023-09-02T23:30:21.026Z,2.47
2023-09-02T23:32:53.051Z,3.40
2023-09-02T23:35:19.841Z,3.00
2023-09-02T23:37:46.761Z,3.03
2023-09-02T23:40:16.569Z,2.70
2023-09-02T23:42:44.171Z,3.20
2023-09-02T23:47:38.811Z,2.17
2023-09-02T23:50:06.057Z,3.05
2023-09-02T23:52:34.464Z,2.95
2023-09-02T23:55:01.874Z,2.42
2023-09-02T23:57:28.644Z,2.30
2023-09-02T23:59:55.375Z,2.50
